sensor_id;sensor_type;location;lat;lon;timestamp;P1;durP1;ratioP1;P2;durP2;ratioP2
59239;SDS011;45010;53.640;10.578;2023-08-07T00:02:16;1.30;;;1.20;;
59239;SDS011;45010;53.640;10.578;2023-08-07T00:05:16;1.13;;;1.02;;
59239;SDS011;45010;53.640;10.578;2023-08-07T00:08:16;1.10;;;0.98;;
59239;SDS011;45010;53.640;10.578;2023-08-07T00:11:17;1.90;;;0.95;;
59239;SDS011;45010;53.640;10.578;2023-08-07T00:14:17;1.58;;;1.10;;
59239;SDS011;45010;53.640;10.578;2023-08-07T00:17:18;1.10;;;1.00;;
59239;SDS011;45010;53.640;10.578;2023-08-07T00:20:18;1.15;;;1.05;;
59239;SDS011;45010;53.640;10.578;2023-08-07T00:23:18;1.38;;;1.25;;
59239;SDS011;45010;53.640;10.578;2023-08-07T00:26:18;2.30;;;1.08;;
59239;SDS011;45010;53.640;10.578;2023-08-07T00:29:19;0.90;;;0.80;;
59239;SDS011;45010;53.640;10.578;2023-08-07T00:32:19;1.08;;;0.90;;
59239;SDS011;45010;53.640;10.578;2023-08-07T00:35:19;1.25;;;1.10;;
59239;SDS011;45010;53.640;10.578;2023-08-07T00:38:20;1.05;;;0.90;;
59239;SDS011;45010;53.640;10.578;2023-08-07T00:41:20;0.90;;;0.80;;
59239;SDS011;45010;53.640;10.578;2023-08-07T00:44:20;1.20;;;1.10;;
59239;SDS011;45010;53.640;10.578;2023-08-07T00:47:21;1.90;;;0.80;;
59239;SDS011;45010;53.640;10.578;2023-08-07T00:50:21;1.40;;;1.23;;
59239;SDS011;45010;53.640;10.578;2023-08-07T00:53:22;1.40;;;1.05;;
59239;SDS011;45010;53.640;10.578;2023-08-07T00:56:22;1.10;;;1.00;;
59239;SDS011;45010;53.640;10.578;2023-08-07T00:59:23;1.10;;;1.00;;
59239;SDS011;45010;53.640;10.578;2023-08-07T01:02:23;1.25;;;0.98;;
59239;SDS011;45010;53.640;10.578;2023-08-07T01:05:24;1.40;;;1.10;;
59239;SDS011;45010;53.640;10.578;2023-08-07T01:08:27;1.50;;;1.15;;
59239;SDS011;45010;53.640;10.578;2023-08-07T01:14:49;2.08;;;1.00;;
59239;SDS011;45010;53.640;10.578;2023-08-07T01:17:53;0.90;;;0.90;;
59239;SDS011;45010;53.640;10.578;2023-08-07T01:20:54;1.08;;;1.05;;
59239;SDS011;45010;53.640;10.578;2023-08-07T01:23:54;1.00;;;0.90;;
59239;SDS011;45010;53.640;10.578;2023-08-07T01:26:54;0.75;;;0.75;;
59239;SDS011;45010;53.640;10.578;2023-08-07T01:30:09;0.75;;;0.73;;
59239;SDS011;45010;53.640;10.578;2023-08-07T01:36:27;1.00;;;0.90;;
59239;SDS011;45010;53.640;10.578;2023-08-07T01:39:28;1.35;;;0.90;;
59239;SDS011;45010;53.640;10.578;2023-08-07T01:42:29;0.98;;;0.80;;
59239;SDS011;45010;53.640;10.578;2023-08-07T01:45:30;1.08;;;0.98;;
59239;SDS011;45010;53.640;10.578;2023-08-07T01:48:30;0.80;;;0.80;;
59239;SDS011;45010;53.640;10.578;2023-08-07T01:51:31;0.80;;;0.80;;
59239;SDS011;45010;53.640;10.578;2023-08-07T01:54:31;1.17;;;1.08;;
59239;SDS011;45010;53.640;10.578;2023-08-07T01:57:31;1.77;;;0.90;;
59239;SDS011;45010;53.640;10.578;2023-08-07T02:00:32;0.80;;;0.80;;
59239;SDS011;45010;53.640;10.578;2023-08-07T02:03:32;0.82;;;0.80;;
59239;SDS011;45010;53.640;10.578;2023-08-07T02:06:32;1.05;;;0.80;;
59239;SDS011;45010;53.640;10.578;2023-08-07T02:09:33;0.75;;;0.70;;
59239;SDS011;45010;53.640;10.578;2023-08-07T02:12:33;1.20;;;1.00;;
59239;SDS011;45010;53.640;10.578;2023-08-07T02:15:33;1.10;;;1.00;;
59239;SDS011;45010;53.640;10.578;2023-08-07T02:18:34;1.27;;;0.93;;
59239;SDS011;45010;53.640;10.578;2023-08-07T02:21:35;1.00;;;0.90;;
59239;SDS011;45010;53.640;10.578;2023-08-07T02:24:35;0.82;;;0.80;;
59239;SDS011;45010;53.640;10.578;2023-08-07T02:27:36;1.05;;;0.80;;
59239;SDS011;45010;53.640;10.578;2023-08-07T02:30:36;1.27;;;1.08;;
59239;SDS011;45010;53.640;10.578;2023-08-07T02:33:36;0.80;;;0.80;;
59239;SDS011;45010;53.640;10.578;2023-08-07T02:36:37;1.33;;;0.95;;
59239;SDS011;45010;53.640;10.578;2023-08-07T02:39:37;0.73;;;0.73;;
59239;SDS011;45010;53.640;10.578;2023-08-07T02:42:38;1.33;;;0.82;;
59239;SDS011;45010;53.640;10.578;2023-08-07T02:45:38;1.65;;;0.98;;
59239;SDS011;45010;53.640;10.578;2023-08-07T02:48:38;2.22;;;0.90;;
59239;SDS011;45010;53.640;10.578;2023-08-07T02:51:40;0.95;;;0.80;;
59239;SDS011;45010;53.640;10.578;2023-08-07T02:54:40;1.30;;;0.82;;
59239;SDS011;45010;53.640;10.578;2023-08-07T02:57:40;1.15;;;1.00;;
59239;SDS011;45010;53.640;10.578;2023-08-07T03:00:40;0.88;;;0.80;;
59239;SDS011;45010;53.640;10.578;2023-08-07T03:03:41;0.82;;;0.75;;
59239;SDS011;45010;53.640;10.578;2023-08-07T03:06:41;0.82;;;0.80;;
59239;SDS011;45010;53.640;10.578;2023-08-07T03:09:44;0.98;;;0.70;;
59239;SDS011;45010;53.640;10.578;2023-08-07T03:12:45;1.52;;;1.00;;
59239;SDS011;45010;53.640;10.578;2023-08-07T03:15:46;1.17;;;0.80;;
59239;SDS011;45010;53.640;10.578;2023-08-07T03:18:49;0.88;;;0.60;;
59239;SDS011;45010;53.640;10.578;2023-08-07T03:21:49;1.20;;;0.85;;
59239;SDS011;45010;53.640;10.578;2023-08-07T03:24:49;1.00;;;0.90;;
59239;SDS011;45010;53.640;10.578;2023-08-07T03:27:50;1.02;;;0.80;;
59239;SDS011;45010;53.640;10.578;2023-08-07T03:30:50;0.82;;;0.82;;
59239;SDS011;45010;53.640;10.578;2023-08-07T03:33:50;0.90;;;0.60;;
59239;SDS011;45010;53.640;10.578;2023-08-07T03:36:51;1.45;;;0.90;;
59239;SDS011;45010;53.640;10.578;2023-08-07T03:39:51;0.88;;;0.70;;
59239;SDS011;45010;53.640;10.578;2023-08-07T03:42:52;1.00;;;0.80;;
59239;SDS011;45010;53.640;10.578;2023-08-07T03:45:55;1.00;;;0.80;;
59239;SDS011;45010;53.640;10.578;2023-08-07T03:48:59;1.10;;;0.80;;
59239;SDS011;45010;53.640;10.578;2023-08-07T03:51:59;1.02;;;0.82;;
59239;SDS011;45010;53.640;10.578;2023-08-07T03:54:59;0.70;;;0.70;;
59239;SDS011;45010;53.640;10.578;2023-08-07T03:58:00;1.10;;;0.68;;
59239;SDS011;45010;53.640;10.578;2023-08-07T04:01:00;1.10;;;1.00;;
59239;SDS011;45010;53.640;10.578;2023-08-07T04:04:00;1.38;;;1.00;;
59239;SDS011;45010;53.640;10.578;2023-08-07T04:07:01;1.58;;;0.90;;
59239;SDS011;45010;53.640;10.578;2023-08-07T04:10:01;0.73;;;0.73;;
59239;SDS011;45010;53.640;10.578;2023-08-07T04:13:02;2.53;;;0.73;;
59239;SDS011;45010;53.640;10.578;2023-08-07T04:16:02;0.88;;;0.70;;
59239;SDS011;45010;53.640;10.578;2023-08-07T04:19:04;0.88;;;0.88;;
59239;SDS011;45010;53.640;10.578;2023-08-07T04:22:04;1.30;;;0.85;;
59239;SDS011;45010;53.640;10.578;2023-08-07T04:25:05;0.70;;;0.70;;
59239;SDS011;45010;53.640;10.578;2023-08-07T04:28:06;0.93;;;0.80;;
59239;SDS011;45010;53.640;10.578;2023-08-07T04:31:06;0.60;;;0.60;;
59239;SDS011;45010;53.640;10.578;2023-08-07T04:34:08;1.25;;;0.70;;
59239;SDS011;45010;53.640;10.578;2023-08-07T04:37:08;1.42;;;0.70;;
59239;SDS011;45010;53.640;10.578;2023-08-07T04:40:09;1.00;;;0.90;;
59239;SDS011;45010;53.640;10.578;2023-08-07T04:43:09;1.52;;;0.68;;
59239;SDS011;45010;53.640;10.578;2023-08-07T04:46:10;0.75;;;0.73;;
59239;SDS011;45010;53.640;10.578;2023-08-07T04:49:12;1.10;;;0.77;;
59239;SDS011;45010;53.640;10.578;2023-08-07T04:52:12;1.17;;;0.90;;
59239;SDS011;45010;53.640;10.578;2023-08-07T04:55:12;3.95;;;1.13;;
59239;SDS011;45010;53.640;10.578;2023-08-07T04:58:13;1.58;;;0.95;;
59239;SDS011;45010;53.640;10.578;2023-08-07T05:01:13;0.82;;;0.80;;
59239;SDS011;45010;53.640;10.578;2023-08-07T05:04:13;0.73;;;0.70;;
59239;SDS011;45010;53.640;10.578;2023-08-07T05:07:13;1.33;;;0.77;;
59239;SDS011;45010;53.640;10.578;2023-08-07T05:10:15;1.92;;;0.73;;
59239;SDS011;45010;53.640;10.578;2023-08-07T05:13:15;1.50;;;1.00;;
59239;SDS011;45010;53.640;10.578;2023-08-07T05:16:15;1.05;;;0.90;;
59239;SDS011;45010;53.640;10.578;2023-08-07T05:19:18;1.88;;;1.10;;
59239;SDS011;45010;53.640;10.578;2023-08-07T05:22:19;3.25;;;1.27;;
59239;SDS011;45010;53.640;10.578;2023-08-07T05:25:19;2.40;;;0.90;;
59239;SDS011;45010;53.640;10.578;2023-08-07T05:28:19;0.93;;;0.90;;
59239;SDS011;45010;53.640;10.578;2023-08-07T05:31:20;1.30;;;0.80;;
59239;SDS011;45010;53.640;10.578;2023-08-07T05:34:20;1.70;;;0.95;;
59239;SDS011;45010;53.640;10.578;2023-08-07T05:37:20;1.33;;;0.90;;
59239;SDS011;45010;53.640;10.578;2023-08-07T05:40:21;1.60;;;0.80;;
59239;SDS011;45010;53.640;10.578;2023-08-07T05:43:21;1.15;;;0.73;;
59239;SDS011;45010;53.640;10.578;2023-08-07T05:46:21;1.02;;;0.88;;
59239;SDS011;45010;53.640;10.578;2023-08-07T05:49:22;1.52;;;0.77;;
59239;SDS011;45010;53.640;10.578;2023-08-07T05:52:22;2.10;;;0.77;;
59239;SDS011;45010;53.640;10.578;2023-08-07T05:55:22;2.50;;;0.85;;
59239;SDS011;45010;53.640;10.578;2023-08-07T05:58:23;2.50;;;0.90;;
59239;SDS011;45010;53.640;10.578;2023-08-07T06:01:23;3.20;;;0.95;;
59239;SDS011;45010;53.640;10.578;2023-08-07T06:04:29;1.33;;;0.80;;
59239;SDS011;45010;53.640;10.578;2023-08-07T06:07:29;1.08;;;0.95;;
59239;SDS011;45010;53.640;10.578;2023-08-07T06:10:30;1.95;;;0.70;;
59239;SDS011;45010;53.640;10.578;2023-08-07T06:13:30;1.30;;;0.80;;
59239;SDS011;45010;53.640;10.578;2023-08-07T06:16:30;1.25;;;0.80;;
59239;SDS011;45010;53.640;10.578;2023-08-07T06:19:31;1.70;;;0.88;;
59239;SDS011;45010;53.640;10.578;2023-08-07T06:22:31;2.78;;;0.93;;
59239;SDS011;45010;53.640;10.578;2023-08-07T06:25:32;1.42;;;0.90;;
59239;SDS011;45010;53.640;10.578;2023-08-07T06:28:33;1.75;;;0.82;;
59239;SDS011;45010;53.640;10.578;2023-08-07T06:31:33;2.80;;;1.00;;
59239;SDS011;45010;53.640;10.578;2023-08-07T06:34:35;1.38;;;0.82;;
59239;SDS011;45010;53.640;10.578;2023-08-07T06:37:35;2.42;;;1.25;;
59239;SDS011;45010;53.640;10.578;2023-08-07T06:40:37;5.43;;;0.95;;
59239;SDS011;45010;53.640;10.578;2023-08-07T06:43:37;5.05;;;1.00;;
59239;SDS011;45010;53.640;10.578;2023-08-07T06:46:38;3.60;;;1.08;;
59239;SDS011;45010;53.640;10.578;2023-08-07T06:49:38;1.88;;;1.05;;
59239;SDS011;45010;53.640;10.578;2023-08-07T06:52:39;4.03;;;1.10;;
59239;SDS011;45010;53.640;10.578;2023-08-07T06:55:40;2.05;;;1.25;;
59239;SDS011;45010;53.640;10.578;2023-08-07T06:58:41;2.55;;;1.10;;
59239;SDS011;45010;53.640;10.578;2023-08-07T07:01:41;2.25;;;0.98;;
59239;SDS011;45010;53.640;10.578;2023-08-07T07:04:42;2.95;;;1.17;;
59239;SDS011;45010;53.640;10.578;2023-08-07T07:07:42;2.92;;;1.17;;
59239;SDS011;45010;53.640;10.578;2023-08-07T07:10:42;3.80;;;1.17;;
59239;SDS011;45010;53.640;10.578;2023-08-07T07:13:43;4.00;;;0.85;;
59239;SDS011;45010;53.640;10.578;2023-08-07T07:16:43;2.67;;;1.10;;
59239;SDS011;45010;53.640;10.578;2023-08-07T07:19:43;2.65;;;0.98;;
59239;SDS011;45010;53.640;10.578;2023-08-07T07:22:44;2.80;;;1.40;;
59239;SDS011;45010;53.640;10.578;2023-08-07T07:25:44;3.50;;;1.20;;
59239;SDS011;45010;53.640;10.578;2023-08-07T07:28:44;2.58;;;0.95;;
59239;SDS011;45010;53.640;10.578;2023-08-07T07:31:45;5.20;;;1.02;;
59239;SDS011;45010;53.640;10.578;2023-08-07T07:34:47;3.08;;;1.08;;
59239;SDS011;45010;53.640;10.578;2023-08-07T07:37:47;2.97;;;1.13;;
59239;SDS011;45010;53.640;10.578;2023-08-07T07:40:47;5.40;;;1.20;;
59239;SDS011;45010;53.640;10.578;2023-08-07T07:43:48;5.32;;;1.58;;
59239;SDS011;45010;53.640;10.578;2023-08-07T07:46:48;2.45;;;1.42;;
59239;SDS011;45010;53.640;10.578;2023-08-07T07:49:48;5.15;;;1.63;;
59239;SDS011;45010;53.640;10.578;2023-08-07T07:53:04;8.35;;;1.50;;
59239;SDS011;45010;53.640;10.578;2023-08-07T07:56:04;4.82;;;1.50;;
59239;SDS011;45010;53.640;10.578;2023-08-07T07:59:04;8.60;;;1.70;;
59239;SDS011;45010;53.640;10.578;2023-08-07T08:02:05;6.25;;;1.80;;
59239;SDS011;45010;53.640;10.578;2023-08-07T08:05:05;5.38;;;1.80;;
59239;SDS011;45010;53.640;10.578;2023-08-07T08:08:07;4.00;;;1.58;;
59239;SDS011;45010;53.640;10.578;2023-08-07T08:11:08;3.25;;;1.50;;
59239;SDS011;45010;53.640;10.578;2023-08-07T08:14:08;5.53;;;1.85;;
59239;SDS011;45010;53.640;10.578;2023-08-07T08:17:09;2.97;;;1.45;;
59239;SDS011;45010;53.640;10.578;2023-08-07T08:20:09;3.72;;;1.48;;
59239;SDS011;45010;53.640;10.578;2023-08-07T08:23:10;5.05;;;1.70;;
59239;SDS011;45010;53.640;10.578;2023-08-07T08:26:10;4.00;;;1.70;;
59239;SDS011;45010;53.640;10.578;2023-08-07T08:29:10;6.65;;;2.08;;
59239;SDS011;45010;53.640;10.578;2023-08-07T08:32:14;6.05;;;1.70;;
59239;SDS011;45010;53.640;10.578;2023-08-07T08:35:14;4.95;;;2.00;;
59239;SDS011;45010;53.640;10.578;2023-08-07T08:38:15;9.80;;;2.03;;
59239;SDS011;45010;53.640;10.578;2023-08-07T08:41:16;4.80;;;1.90;;
59239;SDS011;45010;53.640;10.578;2023-08-07T08:44:19;5.05;;;2.10;;
59239;SDS011;45010;53.640;10.578;2023-08-07T08:47:24;5.18;;;2.45;;
59239;SDS011;45010;53.640;10.578;2023-08-07T08:50:26;5.82;;;2.28;;
59239;SDS011;45010;53.640;10.578;2023-08-07T08:53:26;7.40;;;2.30;;
59239;SDS011;45010;53.640;10.578;2023-08-07T08:56:28;7.70;;;2.00;;
59239;SDS011;45010;53.640;10.578;2023-08-07T08:59:29;6.35;;;2.25;;
59239;SDS011;45010;53.640;10.578;2023-08-07T09:02:30;5.60;;;1.90;;
59239;SDS011;45010;53.640;10.578;2023-08-07T09:05:31;7.90;;;2.30;;
59239;SDS011;45010;53.640;10.578;2023-08-07T09:08:31;7.40;;;2.22;;
59239;SDS011;45010;53.640;10.578;2023-08-07T09:11:32;6.70;;;2.20;;
59239;SDS011;45010;53.640;10.578;2023-08-07T09:14:34;8.75;;;2.10;;
59239;SDS011;45010;53.640;10.578;2023-08-07T09:17:39;6.38;;;2.20;;
59239;SDS011;45010;53.640;10.578;2023-08-07T09:20:41;5.13;;;2.25;;
59239;SDS011;45010;53.640;10.578;2023-08-07T09:23:42;5.63;;;1.88;;
59239;SDS011;45010;53.640;10.578;2023-08-07T09:26:43;5.38;;;2.22;;
59239;SDS011;45010;53.640;10.578;2023-08-07T09:29:44;4.75;;;2.17;;
59239;SDS011;45010;53.640;10.578;2023-08-07T09:32:47;6.05;;;2.00;;
59239;SDS011;45010;53.640;10.578;2023-08-07T09:35:48;4.28;;;1.95;;
59239;SDS011;45010;53.640;10.578;2023-08-07T09:38:51;6.07;;;1.77;;
59239;SDS011;45010;53.640;10.578;2023-08-07T09:41:51;5.70;;;2.13;;
59239;SDS011;45010;53.640;10.578;2023-08-07T09:44:52;4.68;;;2.25;;
59239;SDS011;45010;53.640;10.578;2023-08-07T09:48:05;7.70;;;2.40;;
59239;SDS011;45010;53.640;10.578;2023-08-07T09:51:08;6.57;;;2.10;;
59239;SDS011;45010;53.640;10.578;2023-08-07T09:54:09;7.50;;;2.40;;
59239;SDS011;45010;53.640;10.578;2023-08-07T09:57:10;7.35;;;2.70;;
59239;SDS011;45010;53.640;10.578;2023-08-07T10:00:11;5.07;;;2.40;;
59239;SDS011;45010;53.640;10.578;2023-08-07T10:03:15;6.30;;;2.53;;
59239;SDS011;45010;53.640;10.578;2023-08-07T10:06:17;6.28;;;2.00;;
59239;SDS011;45010;53.640;10.578;2023-08-07T10:09:19;7.57;;;2.28;;
59239;SDS011;45010;53.640;10.578;2023-08-07T10:12:20;4.55;;;2.33;;
59239;SDS011;45010;53.640;10.578;2023-08-07T10:15:21;7.47;;;2.05;;
59239;SDS011;45010;53.640;10.578;2023-08-07T10:18:21;4.47;;;1.88;;
59239;SDS011;45010;53.640;10.578;2023-08-07T10:21:22;9.23;;;2.00;;
59239;SDS011;45010;53.640;10.578;2023-08-07T10:24:24;4.68;;;1.80;;
59239;SDS011;45010;53.640;10.578;2023-08-07T10:27:25;5.05;;;2.10;;
59239;SDS011;45010;53.640;10.578;2023-08-07T10:30:27;3.97;;;2.10;;
59239;SDS011;45010;53.640;10.578;2023-08-07T10:33:29;6.10;;;2.20;;
59239;SDS011;45010;53.640;10.578;2023-08-07T10:36:33;5.80;;;1.90;;
59239;SDS011;45010;53.640;10.578;2023-08-07T10:39:34;4.10;;;2.15;;
59239;SDS011;45010;53.640;10.578;2023-08-07T10:42:56;7.43;;;2.20;;
59239;SDS011;45010;53.640;10.578;2023-08-07T10:46:02;5.28;;;2.63;;
59239;SDS011;45010;53.640;10.578;2023-08-07T10:49:03;6.80;;;2.28;;
59239;SDS011;45010;53.640;10.578;2023-08-07T10:52:12;5.85;;;2.05;;
59239;SDS011;45010;53.640;10.578;2023-08-07T10:55:14;5.80;;;2.10;;
59239;SDS011;45010;53.640;10.578;2023-08-07T10:58:25;5.07;;;1.92;;
59239;SDS011;45010;53.640;10.578;2023-08-07T11:04:38;7.25;;;2.72;;
59239;SDS011;45010;53.640;10.578;2023-08-07T11:07:39;5.50;;;2.00;;
59239;SDS011;45010;53.640;10.578;2023-08-07T11:10:40;7.25;;;2.20;;
59239;SDS011;45010;53.640;10.578;2023-08-07T11:13:41;4.45;;;2.50;;
59239;SDS011;45010;53.640;10.578;2023-08-07T11:16:41;9.00;;;2.75;;
59239;SDS011;45010;53.640;10.578;2023-08-07T11:19:43;5.18;;;2.25;;
59239;SDS011;45010;53.640;10.578;2023-08-07T11:22:43;7.30;;;2.72;;
59239;SDS011;45010;53.640;10.578;2023-08-07T11:25:43;7.30;;;2.30;;
59239;SDS011;45010;53.640;10.578;2023-08-07T11:28:44;5.88;;;2.75;;
59239;SDS011;45010;53.640;10.578;2023-08-07T11:31:44;4.82;;;1.98;;
59239;SDS011;45010;53.640;10.578;2023-08-07T11:34:48;3.10;;;1.75;;
59239;SDS011;45010;53.640;10.578;2023-08-07T11:37:50;6.47;;;1.88;;
59239;SDS011;45010;53.640;10.578;2023-08-07T11:40:53;4.22;;;1.70;;
59239;SDS011;45010;53.640;10.578;2023-08-07T11:43:53;3.58;;;1.75;;
59239;SDS011;45010;53.640;10.578;2023-08-07T11:46:53;8.02;;;2.10;;
59239;SDS011;45010;53.640;10.578;2023-08-07T11:49:54;5.72;;;2.10;;
59239;SDS011;45010;53.640;10.578;2023-08-07T11:52:55;3.90;;;2.08;;
59239;SDS011;45010;53.640;10.578;2023-08-07T11:56:07;4.45;;;2.33;;
59239;SDS011;45010;53.640;10.578;2023-08-07T11:59:09;6.00;;;1.70;;
59239;SDS011;45010;53.640;10.578;2023-08-07T12:02:09;6.35;;;1.95;;
59239;SDS011;45010;53.640;10.578;2023-08-07T12:05:12;10.38;;;2.33;;
59239;SDS011;45010;53.640;10.578;2023-08-07T12:08:12;4.25;;;1.85;;
59239;SDS011;45010;53.640;10.578;2023-08-07T12:11:13;6.57;;;2.03;;
59239;SDS011;45010;53.640;10.578;2023-08-07T12:14:14;6.07;;;1.83;;
59239;SDS011;45010;53.640;10.578;2023-08-07T12:17:17;5.60;;;1.88;;
59239;SDS011;45010;53.640;10.578;2023-08-07T12:20:17;7.10;;;2.15;;
59239;SDS011;45010;53.640;10.578;2023-08-07T12:23:18;4.20;;;2.00;;
59239;SDS011;45010;53.640;10.578;2023-08-07T12:26:20;5.20;;;2.05;;
59239;SDS011;45010;53.640;10.578;2023-08-07T12:29:21;6.65;;;1.65;;
59239;SDS011;45010;53.640;10.578;2023-08-07T12:32:21;4.63;;;1.70;;
59239;SDS011;45010;53.640;10.578;2023-08-07T12:35:21;6.30;;;1.98;;
59239;SDS011;45010;53.640;10.578;2023-08-07T12:38:22;6.78;;;1.83;;
59239;SDS011;45010;53.640;10.578;2023-08-07T12:41:22;7.63;;;1.33;;
59239;SDS011;45010;53.640;10.578;2023-08-07T12:44:22;7.00;;;1.67;;
59239;SDS011;45010;53.640;10.578;2023-08-07T12:47:23;4.88;;;1.83;;
59239;SDS011;45010;53.640;10.578;2023-08-07T12:50:23;5.38;;;1.92;;
59239;SDS011;45010;53.640;10.578;2023-08-07T12:53:24;7.40;;;2.05;;
59239;SDS011;45010;53.640;10.578;2023-08-07T12:56:24;7.68;;;2.13;;
59239;SDS011;45010;53.640;10.578;2023-08-07T12:59:24;4.95;;;1.60;;
59239;SDS011;45010;53.640;10.578;2023-08-07T13:02:24;6.72;;;2.00;;
59239;SDS011;45010;53.640;10.578;2023-08-07T13:05:25;6.00;;;1.77;;
59239;SDS011;45010;53.640;10.578;2023-08-07T13:08:25;6.50;;;1.88;;
59239;SDS011;45010;53.640;10.578;2023-08-07T13:11:26;5.00;;;1.77;;
59239;SDS011;45010;53.640;10.578;2023-08-07T13:14:26;3.38;;;1.33;;
59239;SDS011;45010;53.640;10.578;2023-08-07T13:17:27;4.15;;;1.38;;
59239;SDS011;45010;53.640;10.578;2023-08-07T13:20:27;4.30;;;1.48;;
59239;SDS011;45010;53.640;10.578;2023-08-07T13:23:29;4.95;;;1.55;;
59239;SDS011;45010;53.640;10.578;2023-08-07T13:26:29;4.18;;;1.40;;
59239;SDS011;45010;53.640;10.578;2023-08-07T13:29:30;5.35;;;1.85;;
59239;SDS011;45010;53.640;10.578;2023-08-07T13:32:30;4.63;;;1.55;;
59239;SDS011;45010;53.640;10.578;2023-08-07T13:35:32;6.95;;;1.52;;
59239;SDS011;45010;53.640;10.578;2023-08-07T13:38:32;6.80;;;1.80;;
59239;SDS011;45010;53.640;10.578;2023-08-07T13:41:33;4.47;;;1.40;;
59239;SDS011;45010;53.640;10.578;2023-08-07T13:44:34;4.15;;;1.63;;
59239;SDS011;45010;53.640;10.578;2023-08-07T13:47:34;2.95;;;1.42;;
59239;SDS011;45010;53.640;10.578;2023-08-07T13:50:35;3.35;;;1.40;;
59239;SDS011;45010;53.640;10.578;2023-08-07T13:53:37;2.72;;;1.48;;
59239;SDS011;45010;53.640;10.578;2023-08-07T13:56:38;2.67;;;1.30;;
59239;SDS011;45010;53.640;10.578;2023-08-07T13:59:38;3.42;;;1.70;;
59239;SDS011;45010;53.640;10.578;2023-08-07T14:02:39;3.25;;;1.60;;
59239;SDS011;45010;53.640;10.578;2023-08-07T14:05:39;4.07;;;1.60;;
59239;SDS011;45010;53.640;10.578;2023-08-07T14:08:40;4.65;;;1.88;;
59239;SDS011;45010;53.640;10.578;2023-08-07T14:11:40;3.22;;;1.13;;
59239;SDS011;45010;53.640;10.578;2023-08-07T14:14:40;3.55;;;1.63;;
59239;SDS011;45010;53.640;10.578;2023-08-07T14:17:41;2.50;;;1.63;;
59239;SDS011;45010;53.640;10.578;2023-08-07T14:20:41;3.08;;;1.45;;
59239;SDS011;45010;53.640;10.578;2023-08-07T14:23:41;3.53;;;1.40;;
59239;SDS011;45010;53.640;10.578;2023-08-07T14:26:49;4.13;;;1.35;;
59239;SDS011;45010;53.640;10.578;2023-08-07T14:29:50;3.08;;;1.55;;
59239;SDS011;45010;53.640;10.578;2023-08-07T14:32:50;5.10;;;1.73;;
59239;SDS011;45010;53.640;10.578;2023-08-07T14:35:50;2.78;;;1.17;;
59239;SDS011;45010;53.640;10.578;2023-08-07T14:38:51;2.78;;;1.80;;
59239;SDS011;45010;53.640;10.578;2023-08-07T14:41:51;3.63;;;1.85;;
59239;SDS011;45010;53.640;10.578;2023-08-07T14:44:52;2.53;;;1.42;;
59239;SDS011;45010;53.640;10.578;2023-08-07T14:47:52;2.58;;;1.50;;
59239;SDS011;45010;53.640;10.578;2023-08-07T14:50:52;4.43;;;1.70;;
59239;SDS011;45010;53.640;10.578;2023-08-07T14:53:53;5.07;;;1.83;;
59239;SDS011;45010;53.640;10.578;2023-08-07T14:56:53;5.68;;;1.75;;
59239;SDS011;45010;53.640;10.578;2023-08-07T14:59:54;5.22;;;1.83;;
59239;SDS011;45010;53.640;10.578;2023-08-07T15:02:56;6.82;;;1.83;;
59239;SDS011;45010;53.640;10.578;2023-08-07T15:05:57;4.35;;;1.52;;
59239;SDS011;45010;53.640;10.578;2023-08-07T15:08:58;4.85;;;1.95;;
59239;SDS011;45010;53.640;10.578;2023-08-07T15:11:58;3.85;;;2.00;;
59239;SDS011;45010;53.640;10.578;2023-08-07T15:14:59;4.20;;;1.73;;
59239;SDS011;45010;53.640;10.578;2023-08-07T15:17:59;4.35;;;1.50;;
59239;SDS011;45010;53.640;10.578;2023-08-07T15:21:03;3.72;;;1.83;;
59239;SDS011;45010;53.640;10.578;2023-08-07T15:24:03;3.90;;;1.70;;
59239;SDS011;45010;53.640;10.578;2023-08-07T15:27:04;3.83;;;1.60;;
59239;SDS011;45010;53.640;10.578;2023-08-07T15:30:05;3.70;;;1.52;;
59239;SDS011;45010;53.640;10.578;2023-08-07T15:33:06;4.60;;;2.00;;
59239;SDS011;45010;53.640;10.578;2023-08-07T15:36:06;4.85;;;1.70;;
59239;SDS011;45010;53.640;10.578;2023-08-07T15:39:06;3.97;;;1.90;;
59239;SDS011;45010;53.640;10.578;2023-08-07T15:42:07;4.40;;;1.38;;
59239;SDS011;45010;53.640;10.578;2023-08-07T15:45:07;4.70;;;1.60;;
59239;SDS011;45010;53.640;10.578;2023-08-07T15:48:08;3.97;;;2.00;;
59239;SDS011;45010;53.640;10.578;2023-08-07T15:51:08;4.97;;;1.88;;
59239;SDS011;45010;53.640;10.578;2023-08-07T15:54:09;3.70;;;1.70;;
59239;SDS011;45010;53.640;10.578;2023-08-07T15:57:09;5.10;;;2.20;;
59239;SDS011;45010;53.640;10.578;2023-08-07T16:00:10;4.00;;;1.60;;
59239;SDS011;45010;53.640;10.578;2023-08-07T16:03:13;5.32;;;2.30;;
59239;SDS011;45010;53.640;10.578;2023-08-07T16:06:13;3.53;;;1.80;;
59239;SDS011;45010;53.640;10.578;2023-08-07T16:09:14;5.30;;;2.05;;
59239;SDS011;45010;53.640;10.578;2023-08-07T16:12:14;2.90;;;1.80;;
59239;SDS011;45010;53.640;10.578;2023-08-07T16:15:17;4.05;;;1.45;;
59239;SDS011;45010;53.640;10.578;2023-08-07T16:18:17;3.47;;;1.83;;
59239;SDS011;45010;53.640;10.578;2023-08-07T16:21:18;4.60;;;1.60;;
59239;SDS011;45010;53.640;10.578;2023-08-07T16:24:18;2.85;;;1.65;;
59239;SDS011;45010;53.640;10.578;2023-08-07T16:27:19;4.13;;;1.95;;
59239;SDS011;45010;53.640;10.578;2023-08-07T16:30:20;6.38;;;1.70;;
59239;SDS011;45010;53.640;10.578;2023-08-07T16:33:20;4.18;;;2.13;;
59239;SDS011;45010;53.640;10.578;2023-08-07T16:36:21;3.72;;;1.35;;
59239;SDS011;45010;53.640;10.578;2023-08-07T16:39:21;4.18;;;1.27;;
59239;SDS011;45010;53.640;10.578;2023-08-07T16:42:21;3.85;;;1.77;;
59239;SDS011;45010;53.640;10.578;2023-08-07T16:45:22;3.10;;;1.58;;
59239;SDS011;45010;53.640;10.578;2023-08-07T16:48:23;2.65;;;1.52;;
59239;SDS011;45010;53.640;10.578;2023-08-07T16:51:23;10.32;;;2.50;;
59239;SDS011;45010;53.640;10.578;2023-08-07T16:54:24;5.45;;;1.70;;
59239;SDS011;45010;53.640;10.578;2023-08-07T16:57:25;3.28;;;1.88;;
59239;SDS011;45010;53.640;10.578;2023-08-07T17:00:25;4.20;;;1.70;;
59239;SDS011;45010;53.640;10.578;2023-08-07T17:03:25;5.43;;;1.80;;
59239;SDS011;45010;53.640;10.578;2023-08-07T17:06:26;3.30;;;1.80;;
59239;SDS011;45010;53.640;10.578;2023-08-07T17:09:26;3.65;;;1.73;;
59239;SDS011;45010;53.640;10.578;2023-08-07T17:12:27;3.65;;;1.50;;
59239;SDS011;45010;53.640;10.578;2023-08-07T17:15:27;3.22;;;1.60;;
59239;SDS011;45010;53.640;10.578;2023-08-07T17:18:27;6.10;;;1.60;;
59239;SDS011;45010;53.640;10.578;2023-08-07T17:21:28;3.22;;;1.60;;
59239;SDS011;45010;53.640;10.578;2023-08-07T17:24:28;3.30;;;1.50;;
59239;SDS011;45010;53.640;10.578;2023-08-07T17:27:28;5.05;;;1.65;;
59239;SDS011;45010;53.640;10.578;2023-08-07T17:30:29;5.85;;;1.95;;
59239;SDS011;45010;53.640;10.578;2023-08-07T17:33:29;4.47;;;1.80;;
59239;SDS011;45010;53.640;10.578;2023-08-07T17:36:29;2.90;;;1.55;;
59239;SDS011;45010;53.640;10.578;2023-08-07T17:39:30;5.10;;;1.95;;
59239;SDS011;45010;53.640;10.578;2023-08-07T17:42:30;2.58;;;1.38;;
59239;SDS011;45010;53.640;10.578;2023-08-07T17:45:33;4.07;;;1.67;;
59239;SDS011;45010;53.640;10.578;2023-08-07T17:48:40;3.78;;;1.58;;
59239;SDS011;45010;53.640;10.578;2023-08-07T17:51:44;4.35;;;1.63;;
59239;SDS011;45010;53.640;10.578;2023-08-07T17:54:44;2.97;;;1.60;;
59239;SDS011;45010;53.640;10.578;2023-08-07T17:57:53;4.47;;;1.80;;
59239;SDS011;45010;53.640;10.578;2023-08-07T18:00:54;3.60;;;1.50;;
59239;SDS011;45010;53.640;10.578;2023-08-07T18:03:54;5.38;;;1.83;;